createdAt,value
2022-09-14T00:01:36.409Z,99.30
2022-09-14T00:04:06.606Z,99.30
2022-09-14T00:06:35.468Z,99.30
2022-09-14T00:09:06.878Z,99.30
2022-09-14T00:11:36.939Z,99.30
2022-09-14T00:14:05.793Z,99.60
2022-09-14T00:16:36.356Z,99.20
2022-09-14T00:19:07.604Z,99.30
2022-09-14T00:21:37.219Z,99.30
2022-09-14T00:24:08.365Z,99.10
2022-09-14T00:26:36.973Z,99.20
2022-09-14T00:29:06.092Z,99.20
2022-09-14T00:31:35.776Z,99.40
2022-09-14T00:34:04.810Z,99.20
2022-09-14T00:36:34.499Z,99.00
2022-09-14T00:39:02.647Z,98.90
2022-09-14T00:41:33.626Z,99.00
2022-09-14T00:44:03.518Z,99.00
2022-09-14T00:46:33.543Z,99.10
2022-09-14T00:49:03.826Z,99.00
2022-09-14T00:51:34.405Z,99.00
2022-09-14T00:54:03.617Z,98.90
2022-09-14T00:56:33.018Z,99.00
2022-09-14T00:59:04.825Z,99.10
2022-09-14T01:01:32.951Z,99.10
2022-09-14T01:04:00.935Z,99.20
2022-09-14T01:06:37.769Z,99.20
2022-09-14T01:09:19.991Z,99.50
2022-09-14T01:12:01.298Z,99.30
2022-09-14T01:14:39.676Z,99.30
2022-09-14T01:17:12.335Z,99.70
2022-09-14T01:20:03.725Z,99.40
2022-09-14T01:22:38.656Z,99.30
2022-09-14T01:25:16.683Z,99.30
2022-09-14T01:27:46.463Z,99.30
2022-09-14T01:30:20.594Z,99.10
2022-09-14T01:32:54.759Z,99.30
2022-09-14T01:35:27.302Z,99.40
2022-09-14T01:38:00.788Z,99.40
2022-09-14T01:40:31.942Z,99.40
2022-09-14T01:43:05.199Z,99.70
2022-09-14T01:45:34.853Z,99.30
2022-09-14T01:48:06.662Z,99.80
2022-09-14T01:50:40.379Z,99.60
2022-09-14T01:53:13.331Z,99.40
2022-09-14T01:55:45.322Z,99.50
2022-09-14T01:58:22.710Z,99.50
2022-09-14T02:00:53.895Z,99.90
2022-09-14T02:03:27.026Z,99.80
2022-09-14T02:06:00.541Z,99.90
2022-09-14T02:08:30.742Z,99.70
2022-09-14T02:10:59.571Z,99.80
2022-09-14T02:13:29.819Z,99.90
2022-09-14T02:15:58.009Z,99.90
2022-09-14T02:18:26.835Z,99.80
2022-09-14T02:20:58.431Z,99.80
2022-09-14T02:23:26.935Z,99.70
2022-09-14T02:25:55.958Z,99.80
2022-09-14T02:28:23.943Z,99.90
2022-09-14T02:31:03.463Z,99.80
2022-09-14T02:33:38.506Z,99.80
2022-09-14T02:36:16.245Z,99.80
2022-09-14T02:38:54.230Z,99.80
2022-09-14T02:41:31.318Z,99.70
2022-09-14T02:44:05.701Z,99.60
2022-09-14T02:46:42.966Z,99.90
2022-09-14T02:49:18.510Z,99.90
2022-09-14T02:51:56.854Z,99.80
2022-09-14T02:54:31.815Z,99.80
2022-09-14T02:57:01.847Z,99.90
2022-09-14T02:59:30.201Z,99.80
2022-09-14T03:02:00.945Z,99.90
2022-09-14T03:04:29.459Z,99.80
2022-09-14T03:06:57.925Z,99.90
2022-09-14T03:09:26.357Z,99.90
2022-09-14T03:11:54.423Z,99.90
2022-09-14T03:14:22.426Z,99.90
2022-09-14T03:16:50.432Z,99.90
2022-09-14T03:19:20.007Z,99.90
2022-09-14T03:21:48.017Z,99.90
2022-09-14T03:24:16.044Z,99.90
2022-09-14T03:26:44.032Z,99.90
2022-09-14T03:29:12.002Z,99.90
2022-09-14T03:31:40.301Z,99.90
2022-09-14T03:34:08.443Z,99.90
2022-09-14T03:36:37.847Z,99.90
2022-09-14T03:39:05.851Z,99.90
2022-09-14T03:41:34.043Z,99.90
2022-09-14T03:44:02.183Z,99.90
2022-09-14T03:46:32.419Z,99.90
2022-09-14T03:49:00.414Z,99.90
2022-09-14T03:51:28.465Z,99.90
2022-09-14T03:53:57.826Z,99.90
2022-09-14T03:56:26.299Z,99.90
2022-09-14T03:58:54.418Z,99.90
2022-09-14T04:01:23.687Z,99.90
2022-09-14T04:03:52.234Z,99.90
2022-09-14T04:06:20.646Z,99.90
2022-09-14T04:08:49.351Z,99.90
2022-09-14T04:11:20.934Z,99.90
2022-09-14T04:13:49.516Z,99.90
2022-09-14T04:16:20.374Z,99.90
2022-09-14T04:18:49.703Z,99.90
2022-09-14T04:21:20.527Z,99.90
2022-09-14T04:24:13.361Z,99.90
2022-09-14T04:26:38.615Z,99.90
2022-09-14T04:29:06.882Z,99.90
2022-09-14T04:31:34.937Z,99.90
2022-09-14T04:34:03.155Z,99.90
2022-09-14T04:36:31.884Z,99.90
2022-09-14T04:39:01.693Z,99.90
2022-09-14T04:41:31.598Z,99.90
2022-09-14T04:44:01.270Z,99.90
2022-09-14T04:46:31.670Z,99.90
2022-09-14T04:49:00.255Z,99.90
2022-09-14T04:51:29.774Z,99.90
2022-09-14T04:53:59.359Z,99.90
2022-09-14T04:56:31.508Z,99.90
2022-09-14T04:59:04.155Z,99.90
2022-09-14T05:01:34.527Z,99.90
2022-09-14T05:04:03.133Z,99.90
2022-09-14T05:06:33.365Z,99.90
2022-09-14T05:09:02.738Z,99.90
2022-09-14T05:11:33.465Z,99.90
2022-09-14T05:14:04.512Z,99.90
2022-09-14T05:16:34.537Z,99.90
2022-09-14T05:19:06.655Z,99.90
2022-09-14T05:21:37.569Z,99.90
2022-09-14T05:24:08.002Z,99.90
2022-09-14T05:26:36.125Z,99.90
2022-09-14T05:29:05.695Z,99.90
2022-09-14T05:31:34.404Z,99.90
2022-09-14T05:34:02.550Z,99.90
2022-09-14T05:36:30.547Z,99.90
2022-09-14T05:38:59.043Z,99.90
2022-09-14T05:41:27.182Z,99.90
2022-09-14T05:43:55.294Z,99.90
2022-09-14T05:46:24.784Z,99.90
2022-09-14T05:48:53.018Z,99.90
2022-09-14T05:51:22.317Z,99.90
2022-09-14T05:53:51.144Z,99.90
2022-09-14T05:56:20.723Z,99.90
2022-09-14T05:58:49.593Z,99.90
2022-09-14T06:01:19.484Z,99.90
2022-09-14T06:03:50.077Z,99.90
2022-09-14T06:06:20.785Z,99.90
2022-09-14T06:08:52.399Z,99.90
2022-09-14T06:11:22.464Z,99.90
2022-09-14T06:13:51.031Z,99.90
2022-09-14T06:16:21.107Z,99.90
2022-09-14T06:18:50.659Z,99.90
2022-09-14T06:21:20.987Z,99.90
2022-09-14T06:23:50.759Z,99.90
2022-09-14T06:26:19.050Z,99.90
2022-09-14T06:28:47.102Z,99.90
2022-09-14T06:31:17.716Z,99.90
2022-09-14T06:33:46.583Z,99.90
2022-09-14T06:36:19.611Z,99.90
2022-09-14T06:38:48.910Z,99.90
2022-09-14T06:41:20.411Z,99.90
2022-09-14T06:43:48.907Z,99.90
2022-09-14T06:46:19.928Z,99.90
2022-09-14T06:48:49.484Z,99.90
2022-09-14T06:51:20.851Z,99.90
2022-09-14T06:53:49.880Z,99.90
2022-09-14T06:56:18.962Z,99.90
2022-09-14T06:58:47.010Z,99.90
2022-09-14T07:01:16.852Z,99.90
2022-09-14T07:03:46.908Z,99.90
2022-09-14T07:06:16.655Z,99.90
2022-09-14T07:08:46.175Z,99.90
2022-09-14T07:11:17.104Z,99.90
2022-09-14T07:13:45.490Z,99.90
2022-09-14T07:16:14.270Z,99.90
2022-09-14T07:18:43.140Z,99.90
2022-09-14T07:21:13.153Z,99.90
2022-09-14T07:23:43.069Z,99.90
2022-09-14T07:26:14.585Z,99.90
2022-09-14T07:28:43.469Z,99.90
2022-09-14T07:31:17.786Z,99.90
2022-09-14T07:33:46.268Z,99.90
2022-09-14T07:36:15.913Z,99.90
2022-09-14T07:38:52.998Z,99.90
2022-09-14T07:41:24.174Z,99.90
2022-09-14T07:43:54.470Z,99.90
2022-09-14T07:46:23.436Z,99.90
2022-09-14T07:48:56.631Z,99.90
2022-09-14T07:51:25.609Z,99.90
2022-09-14T07:53:53.839Z,99.90
2022-09-14T07:56:23.240Z,99.90
2022-09-14T07:59:07.123Z,99.90
2022-09-14T08:01:44.387Z,99.90
2022-09-14T08:04:12.654Z,99.90
2022-09-14T08:06:40.787Z,99.90
2022-09-14T08:09:09.775Z,99.90
2022-09-14T08:11:39.891Z,99.90
2022-09-14T08:14:11.393Z,99.90
2022-09-14T08:16:40.838Z,99.90
2022-09-14T08:19:14.661Z,99.90
2022-09-14T08:21:46.533Z,99.90
2022-09-14T08:24:16.631Z,99.90
2022-09-14T08:26:46.479Z,99.90
2022-09-14T08:29:15.084Z,99.90
2022-09-14T08:31:45.371Z,99.90
2022-09-14T08:34:14.286Z,99.90
2022-09-14T08:36:43.517Z,99.90
2022-09-14T08:39:13.147Z,99.90
2022-09-14T08:41:50.334Z,99.90
2022-09-14T08:44:22.176Z,99.90
2022-09-14T08:46:54.822Z,99.90
2022-09-14T08:49:33.515Z,99.90
2022-09-14T08:52:01.510Z,99.90
2022-09-14T08:54:29.545Z,99.90
2022-09-14T08:57:05.878Z,99.90
2022-09-14T08:59:43.544Z,99.90
2022-09-14T09:02:37.264Z,99.90
2022-09-14T09:05:21.749Z,99.90
2022-09-14T09:07:57.049Z,99.90
2022-09-14T09:10:28.110Z,99.90
2022-09-14T09:13:00.896Z,99.90
2022-09-14T09:15:32.004Z,99.90
2022-09-14T09:18:03.304Z,99.90
2022-09-14T09:20:35.335Z,99.90
2022-09-14T09:23:12.496Z,99.90
2022-09-14T09:25:52.270Z,99.90
2022-09-14T09:28:23.416Z,99.90
2022-09-14T09:30:52.055Z,99.90
2022-09-14T09:33:22.763Z,99.90
2022-09-14T09:35:51.483Z,99.90
2022-09-14T09:38:24.860Z,99.90
2022-09-14T09:40:57.484Z,99.90
2022-09-14T09:43:45.851Z,99.90
2022-09-14T09:46:15.934Z,99.90
2022-09-14T09:48:46.108Z,99.90
2022-09-14T09:51:15.985Z,99.90
2022-09-14T09:53:50.670Z,99.90
2022-09-14T09:56:21.504Z,99.90
2022-09-14T09:58:51.842Z,99.90
2022-09-14T10:01:23.232Z,99.90
2022-09-14T10:04:03.911Z,99.90
2022-09-14T10:06:32.658Z,99.90
2022-09-14T10:09:00.771Z,99.90
2022-09-14T10:11:34.457Z,99.90
2022-09-14T10:14:05.823Z,99.90
2022-09-14T10:16:38.916Z,99.90
2022-09-14T10:19:15.095Z,99.90
2022-09-14T10:22:06.496Z,99.90
2022-09-14T10:24:36.577Z,99.90
2022-09-14T10:27:37.149Z,99.90
2022-09-14T10:30:13.402Z,99.90
2022-09-14T10:32:43.576Z,99.90
2022-09-14T10:35:17.154Z,99.90
2022-09-14T10:38:04.119Z,99.90
2022-09-14T10:40:38.587Z,99.90
2022-09-14T10:43:15.567Z,99.90
2022-09-14T10:45:50.868Z,99.90
2022-09-14T10:49:11.240Z,99.90
2022-09-14T10:51:48.400Z,99.90
2022-09-14T10:54:42.571Z,99.90
2022-09-14T10:57:21.238Z,99.90
2022-09-14T10:59:54.449Z,99.90
2022-09-14T11:02:45.617Z,99.90
2022-09-14T11:05:21.250Z,99.90
2022-09-14T11:08:12.823Z,99.90
2022-09-14T11:10:51.892Z,99.90
2022-09-14T11:13:38.204Z,99.90
2022-09-14T11:16:28.546Z,99.90
2022-09-14T11:19:06.850Z,99.90
2022-09-14T11:21:45.438Z,99.90
2022-09-14T11:24:20.626Z,99.90
2022-09-14T11:26:56.043Z,99.90
2022-09-14T11:29:27.664Z,99.90
2022-09-14T11:32:20.424Z,99.90
2022-09-14T11:34:56.228Z,99.90
2022-09-14T11:37:32.360Z,99.90
2022-09-14T11:40:09.683Z,99.90
2022-09-14T11:42:45.026Z,99.90
2022-09-14T11:45:21.395Z,99.90
2022-09-14T11:47:58.033Z,99.90
2022-09-14T11:50:31.614Z,99.90
2022-09-14T11:53:13.312Z,99.90
2022-09-14T11:55:46.846Z,99.90
2022-09-14T11:58:21.386Z,99.90
2022-09-14T12:01:06.062Z,99.90
2022-09-14T12:03:53.809Z,99.90
2022-09-14T12:06:46.140Z,99.90
2022-09-14T12:09:44.904Z,99.90
2022-09-14T12:12:36.281Z,99.90
2022-09-14T12:15:15.143Z,99.90
2022-09-14T12:17:45.206Z,99.90
2022-09-14T12:20:40.411Z,99.90
2022-09-14T12:23:28.725Z,99.90
2022-09-14T12:26:36.519Z,99.90
2022-09-14T12:29:25.180Z,99.90
2022-09-14T12:32:25.544Z,99.90
2022-09-14T12:35:32.447Z,99.90
2022-09-14T12:38:00.475Z,99.90
2022-09-14T12:40:38.427Z,99.90
2022-09-14T12:43:45.750Z,99.90
2022-09-14T12:46:41.910Z,99.90
2022-09-14T12:49:31.515Z,99.90
2022-09-14T12:52:21.130Z,99.90
2022-09-14T12:55:09.763Z,99.90
2022-09-14T12:57:47.718Z,99.90
2022-09-14T13:00:19.700Z,99.90
2022-09-14T13:03:19.006Z,99.90
2022-09-14T13:05:47.206Z,99.90
2022-09-14T13:08:23.317Z,99.90
2022-09-14T13:10:53.083Z,99.90
2022-09-14T13:13:24.883Z,99.90
2022-09-14T13:15:56.498Z,99.90
2022-09-14T13:18:36.484Z,99.90
2022-09-14T13:21:19.607Z,99.90
2022-09-14T13:23:47.840Z,99.90
2022-09-14T13:26:20.235Z,99.90
2022-09-14T13:28:52.133Z,99.90
2022-09-14T13:31:25.443Z,99.90
2022-09-14T13:33:55.327Z,99.90
2022-09-14T13:36:25.371Z,99.90
2022-09-14T13:38:54.262Z,99.90
2022-09-14T13:41:24.193Z,99.90
2022-09-14T13:43:55.612Z,99.90
2022-09-14T13:46:25.279Z,99.90
2022-09-14T13:48:54.378Z,99.90
2022-09-14T13:51:27.248Z,99.90
2022-09-14T13:53:57.488Z,99.90
2022-09-14T13:56:31.045Z,99.90
2022-09-14T13:59:20.656Z,99.90
2022-09-14T14:01:57.904Z,99.90
2022-09-14T14:04:33.583Z,99.90
2022-09-14T14:07:19.514Z,99.90
2022-09-14T14:09:50.921Z,99.90
2022-09-14T14:12:25.654Z,99.90
2022-09-14T14:15:00.645Z,99.90
2022-09-14T14:17:37.701Z,99.90
2022-09-14T14:20:39.434Z,99.90
2022-09-14T14:23:22.560Z,99.90
2022-09-14T14:25:54.231Z,99.90
2022-09-14T14:28:26.555Z,99.90
2022-09-14T14:30:57.524Z,99.90
2022-09-14T14:33:26.065Z,99.90
2022-09-14T14:35:56.411Z,99.90
2022-09-14T14:38:25.653Z,99.90
2022-09-14T14:40:58.368Z,99.90
2022-09-14T14:43:27.856Z,99.90
2022-09-14T14:45:59.215Z,99.90
2022-09-14T14:48:27.767Z,99.90
2022-09-14T14:50:56.252Z,99.90
2022-09-14T14:53:24.393Z,99.90
2022-09-14T14:55:53.135Z,99.90
2022-09-14T14:58:22.550Z,99.90
2022-09-14T15:00:51.718Z,99.90
2022-09-14T15:03:21.348Z,99.90
2022-09-14T15:05:50.114Z,99.90
2022-09-14T15:08:20.284Z,99.90
2022-09-14T15:10:49.358Z,99.90
2022-09-14T15:13:17.475Z,99.90
2022-09-14T15:15:45.662Z,99.90
2022-09-14T15:18:13.783Z,99.90
2022-09-14T15:20:43.212Z,99.90
2022-09-14T15:23:14.050Z,99.90
2022-09-14T15:25:42.070Z,99.90
2022-09-14T15:28:10.056Z,99.90
2022-09-14T15:30:38.146Z,99.90
2022-09-14T15:33:06.312Z,99.90
2022-09-14T15:35:34.380Z,99.90
2022-09-14T15:38:03.826Z,99.90
2022-09-14T15:40:31.996Z,99.90
2022-09-14T15:43:00.605Z,99.90
2022-09-14T15:45:28.826Z,99.90
2022-09-14T15:47:57.001Z,99.90
2022-09-14T15:50:25.543Z,99.90
2022-09-14T15:52:53.634Z,99.90
2022-09-14T15:55:23.178Z,99.90
2022-09-14T15:57:51.184Z,99.90
2022-09-14T16:00:20.338Z,99.90
2022-09-14T16:02:50.408Z,99.90
2022-09-14T16:05:18.922Z,99.90
2022-09-14T16:07:47.120Z,99.90
2022-09-14T16:10:15.326Z,99.90
2022-09-14T16:12:44.658Z,99.90
2022-09-14T16:15:13.111Z,99.90
2022-09-14T16:17:41.154Z,99.90
2022-09-14T16:20:10.479Z,99.90
2022-09-14T16:22:38.576Z,99.90
2022-09-14T16:25:07.096Z,99.90
2022-09-14T16:27:35.386Z,99.90
2022-09-14T16:30:05.432Z,99.90
2022-09-14T16:32:33.627Z,99.90
2022-09-14T16:35:04.781Z,99.90
2022-09-14T16:37:35.356Z,99.90
2022-09-14T16:40:05.074Z,99.90
2022-09-14T16:42:33.208Z,99.90
2022-09-14T16:45:01.215Z,99.90
2022-09-14T16:47:32.238Z,99.90
2022-09-14T16:50:00.486Z,99.90
2022-09-14T16:52:29.706Z,99.90
2022-09-14T16:54:57.750Z,99.90
2022-09-14T16:57:27.046Z,99.90
2022-09-14T16:59:55.221Z,99.90
2022-09-14T17:02:23.591Z,99.90
2022-09-14T17:04:53.764Z,99.90
2022-09-14T17:07:23.708Z,99.90
2022-09-14T17:09:51.910Z,99.90
2022-09-14T17:12:20.055Z,99.90
2022-09-14T17:14:48.120Z,99.90
2022-09-14T17:17:16.305Z,99.90
2022-09-14T17:19:44.863Z,99.90
2022-09-14T17:22:14.437Z,99.90
2022-09-14T17:24:42.478Z,99.90
2022-09-14T17:27:10.896Z,99.90
2022-09-14T17:29:40.827Z,99.90
2022-09-14T17:32:12.635Z,99.90
2022-09-14T17:34:43.234Z,99.90
2022-09-14T17:37:12.279Z,99.90
2022-09-14T17:39:41.964Z,99.90
2022-09-14T17:42:10.328Z,99.90
2022-09-14T17:44:40.815Z,99.90
2022-09-14T17:47:09.067Z,99.90
2022-09-14T17:49:37.151Z,99.90
2022-09-14T17:52:05.289Z,99.90
2022-09-14T17:54:33.383Z,99.90
2022-09-14T17:57:02.971Z,99.90
2022-09-14T17:59:31.146Z,99.90
2022-09-14T18:01:59.438Z,99.90
2022-09-14T18:04:28.422Z,99.90
2022-09-14T18:06:56.670Z,99.90
2022-09-14T18:09:25.361Z,99.90
2022-09-14T18:11:57.157Z,99.90
2022-09-14T18:14:27.052Z,99.90
2022-09-14T18:16:55.187Z,99.90
2022-09-14T18:19:23.691Z,99.90
2022-09-14T18:21:52.823Z,99.90
2022-09-14T18:24:21.292Z,99.90
2022-09-14T18:26:49.342Z,99.90
2022-09-14T18:29:21.059Z,99.90
2022-09-14T18:31:51.706Z,99.90
2022-09-14T18:34:20.309Z,99.90
2022-09-14T18:36:48.857Z,99.90
2022-09-14T18:39:17.151Z,99.90
2022-09-14T18:41:45.359Z,99.90
2022-09-14T18:44:13.754Z,99.90
2022-09-14T18:46:42.078Z,99.90
2022-09-14T18:49:11.533Z,99.90
2022-09-14T18:51:40.171Z,99.90
2022-09-14T18:54:09.378Z,99.90
2022-09-14T18:56:38.292Z,99.90
2022-09-14T18:59:08.904Z,99.90
2022-09-14T19:01:37.944Z,99.90
2022-09-14T19:04:08.011Z,99.90
2022-09-14T19:06:39.134Z,99.90
2022-09-14T19:09:08.090Z,99.90
2022-09-14T19:11:36.476Z,99.90
2022-09-14T19:14:09.294Z,99.90
2022-09-14T19:16:38.060Z,99.90
2022-09-14T19:19:07.113Z,99.90
2022-09-14T19:21:37.007Z,99.90
2022-09-14T19:24:07.703Z,99.90
2022-09-14T19:26:43.919Z,99.90
2022-09-14T19:29:13.483Z,99.90
2022-09-14T19:31:41.818Z,99.90
2022-09-14T19:34:11.337Z,99.90
2022-09-14T19:36:40.760Z,99.90
2022-09-14T19:39:08.855Z,99.90
2022-09-14T19:41:37.373Z,99.90
2022-09-14T19:44:06.768Z,99.90
2022-09-14T19:46:36.106Z,99.90
2022-09-14T19:49:04.291Z,99.90
2022-09-14T19:51:32.765Z,99.90
2022-09-14T19:54:02.227Z,99.90
2022-09-14T19:56:32.592Z,99.90
2022-09-14T19:59:03.312Z,99.90
2022-09-14T20:01:33.763Z,99.90
2022-09-14T20:04:02.627Z,99.90
2022-09-14T20:06:32.439Z,99.90
2022-09-14T20:09:03.648Z,99.90
2022-09-14T20:11:33.411Z,99.90
2022-09-14T20:14:03.020Z,99.90
2022-09-14T20:16:33.758Z,99.90
2022-09-14T20:19:07.155Z,99.90
2022-09-14T20:21:37.391Z,99.90
2022-09-14T20:24:17.374Z,99.90
2022-09-14T20:26:46.406Z,99.90
2022-09-14T20:29:15.129Z,99.90
2022-09-14T20:31:43.388Z,99.90
2022-09-14T20:34:12.243Z,99.90
2022-09-14T20:36:41.114Z,99.90
2022-09-14T20:39:10.963Z,99.90
2022-09-14T20:41:39.243Z,99.90
2022-09-14T20:44:07.800Z,99.90
2022-09-14T20:46:38.643Z,99.90
2022-09-14T20:49:11.239Z,99.90
2022-09-14T20:51:39.739Z,99.90
2022-09-14T20:54:08.919Z,99.90
2022-09-14T20:56:38.838Z,99.90
2022-09-14T20:59:10.507Z,99.90
2022-09-14T21:01:40.337Z,99.90
2022-09-14T21:04:13.742Z,99.90
2022-09-14T21:06:45.366Z,99.90
2022-09-14T21:09:14.350Z,99.90
2022-09-14T21:11:45.714Z,99.90
2022-09-14T21:14:14.219Z,99.90
2022-09-14T21:16:44.263Z,99.90
2022-09-14T21:19:14.400Z,99.90
2022-09-14T21:21:42.975Z,99.90
2022-09-14T21:24:13.443Z,99.90
2022-09-14T21:26:43.978Z,99.90
2022-09-14T21:29:15.190Z,99.90
2022-09-14T21:31:43.819Z,99.90
2022-09-14T21:34:12.651Z,99.90
2022-09-14T21:36:42.694Z,99.90
2022-09-14T21:39:13.466Z,99.90
2022-09-14T21:41:44.174Z,99.90
2022-09-14T21:44:12.737Z,99.90
2022-09-14T21:46:41.179Z,99.90
2022-09-14T21:49:14.069Z,99.90
2022-09-14T21:51:42.619Z,99.90
2022-09-14T21:54:12.211Z,99.90
2022-09-14T21:56:42.825Z,99.90
2022-09-14T21:59:14.089Z,99.90
2022-09-14T22:01:43.827Z,99.90
2022-09-14T22:04:15.500Z,99.90
2022-09-14T22:06:45.093Z,99.90
2022-09-14T22:09:13.907Z,99.90
2022-09-14T22:11:41.934Z,99.90
2022-09-14T22:14:14.613Z,99.90
2022-09-14T22:16:43.697Z,99.90
2022-09-14T22:19:16.944Z,99.90
2022-09-14T22:21:45.606Z,99.90
2022-09-14T22:24:17.318Z,99.90
2022-09-14T22:26:46.351Z,99.90
2022-09-14T22:29:16.618Z,99.90
2022-09-14T22:31:46.033Z,99.90
2022-09-14T22:34:15.051Z,99.90
2022-09-14T22:36:43.377Z,99.90
2022-09-14T22:39:12.193Z,99.90
2022-09-14T22:41:40.912Z,99.90
2022-09-14T22:44:09.746Z,99.90
2022-09-14T22:46:39.239Z,99.90
2022-09-14T22:49:07.252Z,99.90
2022-09-14T22:51:35.291Z,99.90
2022-09-14T22:54:03.507Z,99.90
2022-09-14T22:56:35.223Z,99.90
2022-09-14T22:59:04.533Z,99.90
2022-09-14T23:01:35.393Z,99.90
2022-09-14T23:04:06.839Z,99.90
2022-09-14T23:06:40.807Z,99.90
2022-09-14T23:09:11.180Z,99.90
2022-09-14T23:11:39.347Z,99.90
2022-09-14T23:14:07.498Z,99.90
2022-09-14T23:16:35.558Z,99.90
2022-09-14T23:19:06.890Z,99.90
2022-09-14T23:21:35.785Z,99.90
2022-09-14T23:24:06.621Z,99.90
2022-09-14T23:26:34.850Z,99.90
2022-09-14T23:29:05.274Z,99.90
2022-09-14T23:31:33.681Z,99.90
2022-09-14T23:34:05.000Z,99.90
2022-09-14T23:36:33.799Z,99.90
2022-09-14T23:39:01.799Z,99.90
2022-09-14T23:41:30.069Z,99.90
2022-09-14T23:43:58.181Z,99.90
2022-09-14T23:46:26.355Z,99.90
2022-09-14T23:48:54.697Z,99.90
2022-09-14T23:51:24.815Z,99.90
2022-09-14T23:53:52.815Z,99.90
2022-09-14T23:56:20.850Z,99.90
2022-09-14T23:58:48.867Z,99.90
